Time;durP1;ratioP1;P1;durP2;ratioP2;P2;SDS_P1;SDS_P2;PMS_P1;PMS_P2;Temp;Humidity;BMP_temperature;BMP_pressure;BME280_temperature;BME280_humidity;BME280_pressure;Samples;Min_cycle;Max_cycle;Signal;HPM_P1;HPM_P2
2022/01/05 00:02:08;;;;;;;9.55;1.60;;;5.00;99.90;;;;;;4977552;28;20042;-57
2022/01/05 00:04:35;;;;;;;;;;;5.00;99.90;;;;;;4979688;28;20537;-57
2022/01/05 00:07:02;;;;;;;6.72;1.30;;;5.10;99.90;;;;;;4975196;28;19924;-55
2022/01/05 00:09:28;;;;;;;7.72;1.77;;;5.10;99.90;;;;;;4978759;28;20022;-55
2022/01/05 00:11:53;;;;;;;8.70;1.45;;;5.10;99.90;;;;;;4986268;28;20037;-57
2022/01/05 00:14:19;;;;;;;2.53;1.17;;;5.10;99.90;;;;;;4976215;28;20663;-55
2022/01/05 00:16:44;;;;;;;;;;;5.10;99.90;;;;;;4975421;28;20161;-55
2022/01/05 00:19:10;;;;;;;5.97;1.00;;;5.10;99.90;;;;;;4979470;28;20259;-54
2022/01/05 00:21:36;;;;;;;2.03;1.00;;;5.00;99.90;;;;;;4974718;28;20514;-54
2022/01/05 00:24:02;;;;;;;7.07;2.03;;;5.10;99.90;;;;;;4977719;28;20031;-55
2022/01/05 00:26:27;;;;;;;;;;;5.00;99.90;;;;;;4976161;28;20112;-54
2022/01/05 00:28:54;;;;;;;8.07;1.23;;;5.00;99.90;;;;;;4977651;28;20399;-53
2022/01/05 00:31:20;;;;;;;8.18;1.52;;;5.00;99.90;;;;;;4978004;28;20038;-57
2022/01/05 00:33:45;;;;;;;5.60;1.40;;;5.00;99.90;;;;;;4971887;28;20037;-55
2022/01/05 00:36:11;;;;;;;7.90;1.45;;;5.00;99.90;;;;;;4981908;28;20118;-56
2022/01/05 00:38:37;;;;;;;4.30;0.98;;;5.00;99.90;;;;;;4976798;28;20352;-55
2022/01/05 00:41:04;;;;;;;5.55;1.85;;;5.00;99.90;;;;;;4979473;28;20442;-54
2022/01/05 00:43:30;;;;;;;7.30;1.77;;;4.90;99.90;;;;;;4977789;28;20040;-56
2022/01/05 00:45:55;;;;;;;;;;;4.90;99.90;;;;;;4983225;28;20050;-55
2022/01/05 00:48:21;;;;;;;4.35;1.25;;;4.90;99.90;;;;;;4977957;28;19965;-54
2022/01/05 00:50:46;;;;;;;10.73;1.58;;;4.90;99.90;;;;;;4972916;28;20093;-54
2022/01/05 00:53:12;;;;;;;6.97;1.77;;;4.90;99.90;;;;;;4983099;28;20038;-54
2022/01/05 00:55:37;;;;;;;9.90;1.58;;;4.90;99.90;;;;;;4973480;28;20026;-54
2022/01/05 00:58:03;;;;;;;8.52;2.15;;;4.90;99.90;;;;;;4975952;28;20081;-56
2022/01/05 01:00:28;;;;;;;;;;;4.90;99.90;;;;;;4981069;28;20049;-55
2022/01/05 01:02:54;;;;;;;8.25;1.02;;;4.90;99.90;;;;;;4982737;28;19918;-55
2022/01/05 01:05:19;;;;;;;7.32;1.52;;;4.90;99.90;;;;;;4979618;28;20546;-56
2022/01/05 01:07:46;;;;;;;3.38;1.13;;;4.90;99.90;;;;;;4973466;28;20501;-56
2022/01/05 01:10:12;;;;;;;4.10;1.38;;;4.90;99.90;;;;;;4978811;28;20030;-55
2022/01/05 01:12:37;;;;;;;;;;;4.90;99.90;;;;;;4983503;28;20065;-57
2022/01/05 01:15:05;;;;;;;13.38;1.27;;;4.90;99.90;;;;;;4980442;28;19952;-55
2022/01/05 01:17:31;;;;;;;3.80;0.85;;;4.90;99.90;;;;;;4975848;28;20448;-52
2022/01/05 01:19:56;;;;;;;8.13;1.90;;;4.90;99.90;;;;;;4974155;28;20081;-55
2022/01/05 01:22:22;;;;;;;5.68;1.42;;;4.90;99.90;;;;;;4979211;28;20041;-54
2022/01/05 01:24:48;;;;;;;4.65;1.52;;;4.90;99.90;;;;;;4976769;28;20046;-56
2022/01/05 01:27:13;;;;;;;5.88;2.38;;;4.80;99.90;;;;;;4982641;28;20034;-56
2022/01/05 01:29:39;;;;;;;6.25;1.50;;;4.80;99.90;;;;;;4974981;28;20034;-55
2022/01/05 01:32:04;;;;;;;;;;;4.80;99.90;;;;;;4974122;28;20034;-55
2022/01/05 01:34:30;;;;;;;5.88;1.02;;;4.80;99.90;;;;;;4977086;28;20390;-57
2022/01/05 01:36:56;;;;;;;9.63;2.60;;;4.80;99.90;;;;;;4976443;28;20065;-52
2022/01/05 01:39:21;;;;;;;5.38;1.08;;;4.70;99.90;;;;;;4981530;28;20563;-57
2022/01/05 01:41:47;;;;;;;6.55;2.03;;;4.70;99.90;;;;;;4979293;28;20514;-56
2022/01/05 01:44:12;;;;;;;9.43;1.70;;;4.70;99.90;;;;;;4970393;28;20030;-57
2022/01/05 01:46:38;;;;;;;8.18;1.75;;;4.80;99.90;;;;;;4976475;28;20035;-56
2022/01/05 01:49:03;;;;;;;4.72;1.35;;;4.80;99.90;;;;;;4976010;28;20061;-57
2022/01/05 01:51:29;;;;;;;3.88;1.73;;;4.80;99.90;;;;;;4977900;28;20034;-56
2022/01/05 01:53:54;;;;;;;;;;;4.70;99.90;;;;;;4977470;28;20517;-55
2022/01/05 01:56:22;;;;;;;5.45;1.67;;;4.80;99.90;;;;;;4973547;28;19914;-55
2022/01/05 01:58:48;;;;;;;4.90;1.75;;;4.70;99.90;;;;;;4975992;28;20039;-54
2022/01/05 02:01:16;;;;;;;9.90;2.42;;;4.70;99.90;;;;;;4982473;28;20436;-56
2022/01/05 02:03:42;;;;;;;10.48;1.50;;;4.70;99.90;;;;;;4981897;28;20030;-56
2022/01/05 02:06:07;;;;;;;6.28;1.50;;;4.70;99.90;;;;;;4982972;28;20580;-57
2022/01/05 02:08:34;;;;;;;;;;;4.60;99.90;;;;;;4982091;28;20023;-56
2022/01/05 02:10:59;;;;;;;7.13;1.48;;;4.60;99.90;;;;;;4984351;28;19916;-54
2022/01/05 02:13:25;;;;;;;5.07;1.40;;;4.60;99.90;;;;;;4987923;28;20377;-56
2022/01/05 02:15:51;;;;;;;;;;;4.60;99.90;;;;;;4985918;28;20073;-56
2022/01/05 02:21:02;;;;;;;4.43;1.35;;;4.60;99.90;;;;;;4976873;28;20035;-57
2022/01/05 02:23:27;;;;;;;10.20;2.00;;;4.60;99.90;;;;;;4983686;28;20372;-55
2022/01/05 02:25:53;;;;;;;4.47;1.40;;;4.60;99.90;;;;;;4983804;28;20026;-57
2022/01/05 02:28:19;;;;;;;2.38;1.17;;;4.60;99.90;;;;;;4981061;28;20077;-56
2022/01/05 02:30:44;;;;;;;11.95;1.95;;;4.60;99.90;;;;;;4976556;28;20130;-55
2022/01/05 02:33:10;;;;;;;12.93;2.08;;;4.50;99.90;;;;;;4976267;28;20034;-56
2022/01/05 02:35:35;;;;;;;11.13;1.70;;;4.50;99.90;;;;;;4982990;28;20483;-56
2022/01/05 02:38:01;;;;;;;8.82;1.35;;;4.50;99.90;;;;;;4977995;28;20037;-55
2022/01/05 02:40:27;;;;;;;5.28;1.23;;;4.50;99.90;;;;;;4978117;28;20056;-54
2022/01/05 02:42:55;;;;;;;10.90;2.22;;;4.50;99.90;;;;;;4979353;28;20043;-56
2022/01/05 02:45:21;;;;;;;9.25;1.80;;;4.50;99.90;;;;;;4985042;28;20038;-55
2022/01/05 02:47:48;;;;;;;9.82;1.50;;;4.40;99.90;;;;;;4978834;28;20039;-57
2022/01/05 02:50:14;;;;;;;12.13;3.05;;;4.40;99.90;;;;;;4983617;28;20117;-55
2022/01/05 02:52:41;;;;;;;4.63;1.42;;;4.40;99.90;;;;;;4980482;28;20101;-56
2022/01/05 02:55:08;;;;;;;7.28;2.55;;;4.40;99.90;;;;;;4977864;28;20030;-57
2022/01/05 02:57:34;;;;;;;5.13;1.60;;;4.40;99.90;;;;;;4984421;28;20033;-56
2022/01/05 02:59:59;;;;;;;6.18;1.27;;;4.40;99.90;;;;;;4976168;28;20077;-56
2022/01/05 03:02:25;;;;;;;9.77;1.70;;;4.40;99.90;;;;;;4978417;28;20391;-56
2022/01/05 03:04:51;;;;;;;7.68;1.40;;;4.40;99.90;;;;;;4981605;28;20459;-56
2022/01/05 03:07:16;;;;;;;6.22;1.35;;;4.30;99.90;;;;;;4973241;28;20037;-56
2022/01/05 03:09:43;;;;;;;12.48;3.25;;;4.40;99.90;;;;;;4981818;28;20062;-56
2022/01/05 03:12:09;;;;;;;4.85;1.80;;;4.40;99.90;;;;;;4973804;28;20042;-57
2022/01/05 03:14:35;;;;;;;9.80;1.98;;;4.30;99.90;;;;;;4982963;28;20030;-53
2022/01/05 03:17:00;;;;;;;7.53;1.90;;;4.30;99.90;;;;;;4978601;28;20030;-54
2022/01/05 03:19:26;;;;;;;9.32;1.98;;;4.30;99.90;;;;;;4979473;28;20179;-56
2022/01/05 03:21:51;;;;;;;10.65;2.20;;;4.30;99.90;;;;;;4987355;28;20026;-57
2022/01/05 03:24:17;;;;;;;10.27;2.22;;;4.30;99.90;;;;;;4979294;28;20064;-56
2022/01/05 03:26:42;;;;;;;12.77;2.20;;;4.30;99.90;;;;;;4981402;28;20023;-56
2022/01/05 03:29:08;;;;;;;;;;;4.20;99.90;;;;;;4977418;28;20041;-55
2022/01/05 03:31:33;;;;;;;6.45;1.30;;;4.30;99.90;;;;;;4978019;28;19914;-55
2022/01/05 03:33:59;;;;;;;10.32;1.50;;;4.20;99.90;;;;;;4976916;28;20034;-56
2022/01/05 03:36:25;;;;;;;;;;;4.20;99.90;;;;;;4981360;28;20042;-56
2022/01/05 03:38:50;;;;;;;8.27;3.03;;;4.20;99.90;;;;;;4976487;28;19944;-53
2022/01/05 03:41:16;;;;;;;18.73;3.05;;;4.20;99.90;;;;;;4975548;28;20113;-57
2022/01/05 03:43:42;;;;;;;9.13;1.65;;;4.20;99.90;;;;;;4979930;28;20058;-55
2022/01/05 03:46:07;;;;;;;19.77;4.40;;;4.10;99.90;;;;;;4979219;28;20030;-56
2022/01/05 03:48:33;;;;;;;13.77;2.55;;;4.10;99.90;;;;;;4982989;28;20041;-57
2022/01/05 03:50:58;;;;;;;15.35;1.80;;;4.10;99.90;;;;;;4981881;28;20026;-54
2022/01/05 03:53:24;;;;;;;12.05;1.95;;;4.10;99.90;;;;;;4980661;28;20027;-57
2022/01/05 03:55:49;;;;;;;4.93;1.58;;;4.10;99.90;;;;;;4974813;28;20387;-56
2022/01/05 03:58:15;;;;;;;12.38;2.78;;;4.10;99.90;;;;;;4978416;28;20037;-55
2022/01/05 04:00:45;;;;;;;5.93;2.45;;;4.10;99.90;;;;;;4973952;28;20023;-56
2022/01/05 04:03:10;;;;;;;10.25;2.58;;;4.10;99.90;;;;;;4975902;28;20030;-56
2022/01/05 04:05:36;;;;;;;8.45;2.38;;;4.10;99.90;;;;;;4976801;28;20264;-55
2022/01/05 04:08:02;;;;;;;10.13;1.75;;;4.10;99.90;;;;;;4983147;28;20030;-55
2022/01/05 04:10:27;;;;;;;;;;;4.10;99.90;;;;;;4975597;28;20034;-56
2022/01/05 04:12:53;;;;;;;6.43;2.05;;;4.10;99.90;;;;;;4969908;23;19929;-57
2022/01/05 04:15:19;;;;;;;;;;;4.10;99.90;;;;;;4930555;28;20068;-56
2022/01/05 04:17:45;;;;;;;6.15;3.05;;;4.10;99.90;;;;;;4928834;29;19919;-57
2022/01/05 04:20:11;;;;;;;11.52;2.40;;;4.10;99.90;;;;;;4932828;28;20050;-57
2022/01/05 04:22:38;;;;;;;8.77;1.67;;;4.10;99.90;;;;;;4928620;29;20031;-56
2022/01/05 04:25:04;;;;;;;7.90;1.35;;;4.10;99.90;;;;;;4934236;28;20035;-56
2022/01/05 04:27:30;;;;;;;9.52;4.07;;;4.10;99.90;;;;;;4938911;28;20046;-57
2022/01/05 04:29:55;;;;;;;5.10;1.90;;;4.10;99.90;;;;;;4930447;28;20039;-54
2022/01/05 04:32:21;;;;;;;8.55;1.88;;;4.10;99.90;;;;;;4928046;28;20035;-58
2022/01/05 04:34:46;;;;;;;6.93;1.90;;;4.10;99.90;;;;;;4931056;28;20503;-57
2022/01/05 04:37:12;;;;;;;8.88;1.77;;;4.10;99.90;;;;;;4928652;28;20111;-58
2022/01/05 04:39:37;;;;;;;10.15;1.80;;;4.10;99.90;;;;;;4928338;29;20036;-57
2022/01/05 04:42:04;;;;;;;6.18;2.10;;;4.00;99.90;;;;;;4934831;28;20047;-56
2022/01/05 04:44:29;;;;;;;11.10;2.45;;;4.00;99.90;;;;;;4927862;28;20031;-57
2022/01/05 04:46:55;;;;;;;8.98;2.72;;;4.00;99.90;;;;;;4928440;28;20039;-58
2022/01/05 04:49:21;;;;;;;7.47;1.45;;;4.00;99.90;;;;;;4928634;29;20570;-57
2022/01/05 04:51:46;;;;;;;7.00;2.10;;;4.00;99.90;;;;;;4932741;28;20027;-56
2022/01/05 04:54:12;;;;;;;10.48;1.38;;;4.00;99.90;;;;;;4932868;28;20099;-58
2022/01/05 04:56:38;;;;;;;5.63;1.63;;;4.00;99.90;;;;;;4929334;29;20027;-55
2022/01/05 04:59:03;;;;;;;4.43;2.33;;;4.00;99.90;;;;;;4930761;28;20046;-56
2022/01/05 05:01:29;;;;;;;5.63;2.33;;;4.00;99.90;;;;;;4934991;28;20035;-57
2022/01/05 05:03:54;;;;;;;8.75;2.08;;;3.90;99.90;;;;;;4928911;29;20043;-57
2022/01/05 05:06:21;;;;;;;;;;;3.90;99.90;;;;;;4928384;28;20082;-55
2022/01/05 05:08:46;;;;;;;9.07;1.48;;;3.90;99.90;;;;;;4927833;28;19915;-55
2022/01/05 05:11:12;;;;;;;10.00;2.17;;;3.90;99.90;;;;;;4921164;28;20026;-55
2022/01/05 05:13:37;;;;;;;9.63;1.55;;;3.90;99.90;;;;;;4926693;29;20047;-57
2022/01/05 05:16:03;;;;;;;5.07;1.50;;;3.90;99.90;;;;;;4927516;29;20437;-56
2022/01/05 05:18:29;;;;;;;6.65;1.50;;;3.90;99.90;;;;;;4928554;29;20031;-56
2022/01/05 05:20:54;;;;;;;9.43;1.63;;;3.80;99.90;;;;;;4926602;28;20046;-56
2022/01/05 05:23:20;;;;;;;8.30;2.05;;;3.90;99.90;;;;;;4936463;28;20042;-55
2022/01/05 05:25:45;;;;;;;10.27;2.30;;;3.80;99.90;;;;;;4930589;28;20031;-56
2022/01/05 05:28:11;;;;;;;10.88;4.38;;;3.80;99.90;;;;;;4928788;28;20501;-57
2022/01/05 05:30:36;;;;;;;8.68;1.27;;;3.80;99.90;;;;;;4926453;29;20055;-56
2022/01/05 05:33:03;;;;;;;18.08;2.28;;;4.60;99.90;;;;;;4927523;29;20032;-57
2022/01/05 05:35:29;;;;;;;8.75;2.35;;;4.70;99.90;;;;;;4927678;28;20401;-56
2022/01/05 05:37:55;;;;;;;6.93;1.42;;;4.50;99.90;;;;;;4926572;28;20046;-56
2022/01/05 05:40:21;;;;;;;8.52;2.47;;;4.30;99.90;;;;;;4929418;29;20046;-54
2022/01/05 05:42:47;;;;;;;6.13;1.65;;;4.10;99.90;;;;;;4931946;28;20027;-55
2022/01/05 05:45:13;;;;;;;6.80;3.05;;;4.00;99.90;;;;;;4931407;29;20042;-58
2022/01/05 05:47:38;;;;;;;5.55;1.10;;;3.90;99.90;;;;;;4935090;29;20456;-56
2022/01/05 05:50:04;;;;;;;8.10;1.75;;;3.80;99.90;;;;;;4929942;28;20450;-56
2022/01/05 05:52:30;;;;;;;7.45;1.45;;;3.70;99.90;;;;;;4936028;29;20122;-56
2022/01/05 05:54:55;;;;;;;4.25;1.27;;;3.60;99.90;;;;;;4937826;28;20114;-56
2022/01/05 05:57:21;;;;;;;8.27;1.48;;;3.60;99.90;;;;;;4931040;29;20135;-57
2022/01/05 05:59:46;;;;;;;6.38;1.92;;;3.50;99.90;;;;;;4929928;28;20064;-56
2022/01/05 06:02:12;;;;;;;5.63;1.75;;;3.50;99.90;;;;;;4935911;29;20046;-57
2022/01/05 06:04:37;;;;;;;5.55;1.83;;;3.40;99.90;;;;;;4930475;28;20479;-56
2022/01/05 06:07:03;;;;;;;4.90;1.35;;;3.30;99.90;;;;;;4931894;28;20118;-56
2022/01/05 06:09:29;;;;;;;15.30;2.30;;;3.30;99.90;;;;;;4933563;28;20425;-56
2022/01/05 06:11:54;;;;;;;6.70;1.55;;;3.30;99.90;;;;;;4938822;28;20035;-56
2022/01/05 06:14:20;;;;;;;5.15;1.38;;;3.20;99.90;;;;;;4929329;28;20027;-56
2022/01/05 06:16:46;;;;;;;14.75;2.20;;;3.20;99.90;;;;;;4936963;28;20041;-56
2022/01/05 06:19:11;;;;;;;6.35;1.05;;;3.20;99.90;;;;;;4929680;28;20027;-57
2022/01/05 06:21:37;;;;;;;7.60;3.15;;;3.20;99.90;;;;;;4928605;28;20292;-56
2022/01/05 06:24:03;;;;;;;7.32;1.20;;;3.10;99.90;;;;;;4936153;28;20027;-57
2022/01/05 06:26:29;;;;;;;3.97;1.25;;;3.10;99.90;;;;;;4935433;28;20047;-58
2022/01/05 06:28:54;;;;;;;6.55;1.35;;;3.10;99.90;;;;;;4930412;28;20031;-57
2022/01/05 06:31:20;;;;;;;8.90;1.15;;;3.10;99.90;;;;;;4931470;28;20023;-57
2022/01/05 06:33:45;;;;;;;5.30;1.63;;;3.10;99.90;;;;;;4936427;28;20131;-54
2022/01/05 06:36:11;;;;;;;7.95;1.23;;;3.10;99.90;;;;;;4936177;29;20028;-55
2022/01/05 06:38:36;;;;;;;10.02;2.95;;;3.00;99.90;;;;;;4933558;28;20477;-56
2022/01/05 06:41:02;;;;;;;9.45;1.70;;;3.00;99.90;;;;;;4934015;28;20429;-58
2022/01/05 06:43:30;;;;;;;9.73;2.05;;;3.00;99.90;;;;;;4939276;28;20452;-56
2022/01/05 06:45:56;;;;;;;9.45;1.48;;;3.00;99.90;;;;;;4933947;28;20440;-57
2022/01/05 06:48:22;;;;;;;8.90;1.30;;;2.90;99.90;;;;;;4938203;28;20140;-58
2022/01/05 06:50:48;;;;;;;5.07;1.40;;;2.90;99.90;;;;;;4930595;29;20056;-56
2022/01/05 06:53:14;;;;;;;7.63;1.42;;;2.90;99.90;;;;;;4934665;28;20034;-58
2022/01/05 06:55:40;;;;;;;13.88;2.38;;;2.90;99.90;;;;;;4932948;28;20707;-57
2022/01/05 06:58:05;;;;;;;5.35;1.67;;;2.90;99.90;;;;;;4936026;29;20032;-56
2022/01/05 07:00:31;;;;;;;7.50;1.45;;;2.90;99.90;;;;;;4936026;28;20571;-57
2022/01/05 07:02:57;;;;;;;8.00;1.48;;;2.90;99.90;;;;;;4927206;28;20035;-55
2022/01/05 07:05:22;;;;;;;5.03;0.93;;;2.90;99.90;;;;;;4934544;29;20043;-56
2022/01/05 07:07:48;;;;;;;8.40;3.13;;;2.90;99.90;;;;;;4936924;28;20031;-57
2022/01/05 07:10:13;;;;;;;9.32;1.48;;;2.80;99.90;;;;;;4930820;28;20023;-57
2022/01/05 07:12:39;;;;;;;6.65;1.30;;;2.90;99.90;;;;;;4936949;28;20484;-57
2022/01/05 07:15:06;;;;;;;14.73;2.92;;;2.90;99.90;;;;;;4930146;28;20160;-57
2022/01/05 07:17:31;;;;;;;8.35;1.30;;;2.90;99.90;;;;;;4929820;29;20610;-55
2022/01/05 07:19:57;;;;;;;8.05;1.65;;;2.80;99.90;;;;;;4930311;28;20039;-56
2022/01/05 07:22:22;;;;;;;7.82;2.00;;;2.80;99.90;;;;;;4932397;28;20122;-55
2022/01/05 07:24:48;;;;;;;10.63;3.45;;;2.80;99.90;;;;;;4929417;29;20031;-57
2022/01/05 07:27:13;;;;;;;7.97;1.70;;;2.80;99.90;;;;;;4929288;28;20039;-57
2022/01/05 07:29:39;;;;;;;7.32;2.03;;;2.80;99.90;;;;;;4929362;28;20035;-57
2022/01/05 07:32:05;;;;;;;5.80;1.65;;;2.80;99.90;;;;;;4929768;29;20042;-58
2022/01/05 07:34:31;;;;;;;10.98;1.85;;;2.80;99.90;;;;;;4927994;29;20026;-57
2022/01/05 07:36:57;;;;;;;10.65;1.90;;;2.80;99.90;;;;;;4929359;28;20593;-58
2022/01/05 07:39:22;;;;;;;8.23;2.92;;;2.80;99.90;;;;;;4937145;28;20082;-56
2022/01/05 07:41:48;;;;;;;3.25;1.10;;;2.80;99.90;;;;;;4929201;28;20043;-57
2022/01/05 07:44:13;;;;;;;7.97;2.40;;;2.80;99.90;;;;;;4930530;28;20791;-56
2022/01/05 07:46:39;;;;;;;6.50;2.58;;;2.80;99.90;;;;;;4932027;29;20106;-58
2022/01/05 07:49:05;;;;;;;8.27;1.98;;;2.90;99.90;;;;;;4929146;29;20035;-57
2022/01/05 07:51:31;;;;;;;4.63;1.88;;;2.90;99.90;;;;;;4928570;28;20028;-57
2022/01/05 07:53:57;;;;;;;;;;;2.90;99.90;;;;;;4930148;29;20082;-58
2022/01/05 07:56:23;;;;;;;3.50;1.27;;;2.90;99.90;;;;;;4929235;29;19915;-56
2022/01/05 07:58:49;;;;;;;;;;;3.00;99.90;;;;;;4928810;28;20082;-56
2022/01/05 08:01:18;;;;;;;5.40;1.77;;;3.00;99.90;;;;;;4931490;28;19918;-57
2022/01/05 08:03:47;;;;;;;7.47;1.98;;;3.00;99.90;;;;;;4928189;29;20058;-55
2022/01/05 08:06:14;;;;;;;9.45;2.03;;;3.00;99.90;;;;;;4928260;28;20043;-57
2022/01/05 08:08:39;;;;;;;;;;;3.00;99.90;;;;;;4935616;28;20066;-57
2022/01/05 08:11:05;;;;;;;8.07;1.23;;;3.00;99.90;;;;;;4929996;28;19951;-56
2022/01/05 08:13:30;;;;;;;6.00;2.05;;;3.00;99.90;;;;;;4934348;29;20028;-56
2022/01/05 08:15:56;;;;;;;;;;;3.10;99.90;;;;;;4931151;28;20050;-56
2022/01/05 08:18:22;;;;;;;10.63;1.60;;;3.10;99.90;;;;;;4929055;28;19915;-57
2022/01/05 08:20:48;;;;;;;;;;;3.10;99.90;;;;;;4932580;28;20122;-56
2022/01/05 08:23:18;;;;;;;8.32;2.15;;;3.20;99.90;;;;;;4929021;28;20093;-57
2022/01/05 08:25:44;;;;;;;5.60;1.42;;;3.20;99.90;;;;;;4930772;29;20035;-57
2022/01/05 08:28:11;;;;;;;8.13;1.90;;;3.20;99.90;;;;;;4933342;29;20079;-57
2022/01/05 08:30:37;;;;;;;11.65;1.85;;;3.30;99.90;;;;;;4930662;29;20301;-57
2022/01/05 08:33:03;;;;;;;15.95;2.83;;;3.40;99.90;;;;;;4927467;28;20028;-56
2022/01/05 08:35:29;;;;;;;8.60;2.03;;;3.40;99.90;;;;;;4926986;28;21024;-57
2022/01/05 08:37:55;;;;;;;8.70;1.73;;;3.50;99.90;;;;;;4929806;28;20038;-57
2022/01/05 08:40:23;;;;;;;14.48;3.10;;;3.50;99.90;;;;;;4932911;28;20429;-58
2022/01/05 08:42:50;;;;;;;5.07;2.13;;;3.60;99.90;;;;;;4932332;28;20367;-57
2022/01/05 08:45:17;;;;;;;5.38;2.65;;;3.70;99.90;;;;;;4931010;29;20330;-57
2022/01/05 08:47:47;;;;;;;6.45;1.88;;;3.80;99.90;;;;;;4929820;28;20393;-58
2022/01/05 08:50:14;;;;;;;5.93;2.28;;;3.90;99.90;;;;;;4937151;28;20024;-57
2022/01/05 08:52:40;;;;;;;7.15;2.15;;;3.90;99.90;;;;;;4932189;28;20058;-58
2022/01/05 08:55:06;;;;;;;10.55;3.10;;;4.00;99.90;;;;;;4932729;28;20058;-57
2022/01/05 08:57:31;;;;;;;9.80;2.22;;;4.00;99.90;;;;;;4937133;28;20389;-57
2022/01/05 08:59:57;;;;;;;11.15;2.47;;;4.00;99.90;;;;;;4934165;28;20560;-57
2022/01/05 09:02:23;;;;;;;9.23;3.05;;;4.10;99.90;;;;;;4934905;28;20512;-57
2022/01/05 09:04:51;;;;;;;10.32;1.98;;;4.10;99.90;;;;;;4925976;28;20051;-57
2022/01/05 09:07:18;;;;;;;9.77;3.38;;;4.10;99.90;;;;;;4931253;29;20103;-56
2022/01/05 09:09:44;;;;;;;6.95;3.03;;;4.10;99.90;;;;;;4932065;28;20031;-57
2022/01/05 09:12:09;;;;;;;;;;;4.10;99.90;;;;;;4931973;28;20576;-57
2022/01/05 09:14:35;;;;;;;8.80;2.75;;;4.10;99.90;;;;;;4926106;29;20053;-57
2022/01/05 09:17:00;;;;;;;9.20;3.33;;;4.10;99.90;;;;;;4927763;28;20417;-58
2022/01/05 09:19:28;;;;;;;9.00;2.35;;;4.10;99.90;;;;;;4932610;28;20043;-58
2022/01/05 09:21:54;;;;;;;7.60;2.72;;;4.10;99.90;;;;;;4930517;28;20534;-57
2022/01/05 09:24:19;;;;;;;13.68;3.63;;;4.20;99.90;;;;;;4927641;29;20122;-57
2022/01/05 09:26:45;;;;;;;15.45;3.28;;;4.20;99.90;;;;;;4928404;29;20050;-57
2022/01/05 09:29:10;;;;;;;7.78;2.70;;;4.20;99.90;;;;;;4930542;28;20091;-56
2022/01/05 09:31:36;;;;;;;12.55;4.95;;;4.30;99.90;;;;;;4927324;29;20201;-56
2022/01/05 09:34:02;;;;;;;13.50;3.08;;;4.30;99.90;;;;;;4927663;28;20071;-57
2022/01/05 09:36:33;;;;;;;8.05;2.67;;;4.40;99.90;;;;;;4927468;29;20063;-57
2022/01/05 09:41:56;;;;;;;11.15;2.40;;;4.60;99.90;;;;;;4935088;28;20106;-57
2022/01/05 09:44:29;;;;;;;9.70;2.60;;;4.80;99.90;;;;;;4931667;29;20134;-57
2022/01/05 09:47:04;;;;;;;12.10;2.35;;;4.90;99.90;;;;;;4927285;28;20274;-57
2022/01/05 09:49:35;;;;;;;10.68;2.60;;;4.90;99.90;;;;;;4929835;29;20035;-57
2022/01/05 09:52:05;;;;;;;12.48;2.63;;;5.00;99.90;;;;;;4928676;29;20043;-57
2022/01/05 09:54:33;;;;;;;11.02;2.47;;;5.10;99.90;;;;;;4928413;28;20104;-56
2022/01/05 09:56:59;;;;;;;13.38;2.75;;;5.10;99.70;;;;;;4931785;29;20125;-58
2022/01/05 09:59:25;;;;;;;6.40;2.05;;;5.10;99.80;;;;;;4930770;29;20114;-58
2022/01/05 10:01:51;;;;;;;10.40;2.78;;;5.00;99.70;;;;;;4930117;29;20043;-58
2022/01/05 10:04:16;;;;;;;7.97;3.08;;;5.00;99.60;;;;;;4928536;29;20027;-57
2022/01/05 10:06:42;;;;;;;11.80;2.47;;;5.20;99.90;;;;;;4927264;29;20663;-58
2022/01/05 10:09:08;;;;;;;;;;;6.00;99.90;;;;;;4928113;28;20065;-57
2022/01/05 10:11:34;;;;;;;15.15;3.83;;;6.40;98.00;;;;;;4927299;29;19942;-58
2022/01/05 10:14:01;;;;;;;7.82;3.15;;;6.10;97.60;;;;;;4926187;28;20099;-57
2022/01/05 10:16:26;;;;;;;6.70;2.65;;;5.80;98.30;;;;;;4929953;28;20172;-56
2022/01/05 10:18:52;;;;;;;7.10;1.85;;;5.60;98.60;;;;;;4927965;28;20149;-58
2022/01/05 10:21:18;;;;;;;;;;;5.50;99.00;;;;;;4928599;28;20095;-57
2022/01/05 10:23:52;;;;;;;9.30;2.00;;;5.50;99.10;;;;;;4927388;29;19922;-58
2022/01/05 10:26:21;;;;;;;9.23;2.50;;;5.60;99.10;;;;;;4927439;28;20115;-56
2022/01/05 10:28:48;;;;;;;8.15;2.35;;;5.60;99.00;;;;;;4929944;28;20028;-58
2022/01/05 10:31:16;;;;;;;10.40;2.80;;;5.60;99.00;;;;;;4934389;29;20079;-57
2022/01/05 10:33:42;;;;;;;11.10;3.17;;;5.50;99.00;;;;;;4933334;28;20415;-56
2022/01/05 10:36:07;;;;;;;10.13;2.78;;;5.50;99.20;;;;;;4933835;28;20036;-56
2022/01/05 10:38:33;;;;;;;;;;;5.40;99.50;;;;;;4941086;28;20038;-56
2022/01/05 10:41:12;;;;;;;8.50;3.35;;;5.50;99.40;;;;;;4936728;28;19957;-58
2022/01/05 10:43:59;;;;;;;4.05;1.90;;;5.60;99.60;;;;;;4939877;29;20027;-57
2022/01/05 10:46:33;;;;;;;13.82;2.67;;;5.70;99.50;;;;;;4935560;29;20079;-56
2022/01/05 10:48:58;;;;;;;4.68;1.92;;;5.70;98.90;;;;;;4933147;29;20111;-57
2022/01/05 10:51:29;;;;;;;7.15;2.42;;;5.70;99.10;;;;;;4930444;29;20564;-55
2022/01/05 10:54:21;;;;;;;8.38;2.33;;;5.70;99.00;;;;;;4933623;28;20036;-56
2022/01/05 10:56:47;;;;;;;7.38;2.90;;;5.70;99.50;;;;;;4931483;29;20027;-57
2022/01/05 10:59:14;;;;;;;10.13;1.92;;;5.70;99.80;;;;;;4933646;29;20036;-57
2022/01/05 11:01:41;;;;;;;5.43;2.67;;;5.70;99.90;;;;;;4929539;28;20047;-55
2022/01/05 11:04:21;;;;;;;9.02;2.40;;;5.60;99.90;;;;;;4930517;28;20469;-58
2022/01/05 11:06:59;;;;;;;6.07;2.28;;;5.60;99.90;;;;;;4930178;29;20113;-61
2022/01/05 11:09:25;;;;;;;8.18;2.10;;;5.60;99.90;;;;;;4935810;28;20374;-57
2022/01/05 11:11:50;;;;;;;;;;;5.60;99.90;;;;;;4930511;29;20035;-58
2022/01/05 11:14:19;;;;;;;4.50;1.30;;;5.50;99.90;;;;;;4929019;29;20438;-58
2022/01/05 11:16:48;;;;;;;6.00;1.88;;;5.50;99.90;;;;;;4930668;28;20338;-58
2022/01/05 11:19:29;;;;;;;5.13;1.30;;;5.40;99.90;;;;;;4929312;28;20031;-56
2022/01/05 11:22:17;;;;;;;3.30;1.60;;;5.30;99.90;;;;;;4935660;29;20767;-58
2022/01/05 11:24:51;;;;;;;3.10;1.20;;;5.10;99.90;;;;;;4929505;28;20030;-57
2022/01/05 11:27:28;;;;;;;8.98;1.60;;;5.00;99.90;;;;;;4930274;29;20035;-57
2022/01/05 11:29:55;;;;;;;6.22;1.90;;;4.80;99.90;;;;;;4931945;29;20027;-58
2022/01/05 11:32:26;;;;;;;5.53;1.75;;;4.70;99.90;;;;;;4931291;29;20098;-57
2022/01/05 11:34:52;;;;;;;6.45;1.27;;;4.70;99.90;;;;;;4932552;28;20402;-56
2022/01/05 11:37:19;;;;;;;3.67;1.25;;;4.60;99.90;;;;;;4931261;28;20543;-56
2022/01/05 11:39:55;;;;;;;6.40;1.20;;;4.60;99.90;;;;;;4931291;29;20072;-59
2022/01/05 11:42:28;;;;;;;5.03;1.67;;;4.60;99.90;;;;;;4932876;28;20063;-57
2022/01/05 11:44:54;;;;;;;3.25;0.90;;;4.60;99.90;;;;;;4932633;28;20042;-57
2022/01/05 11:47:28;;;;;;;;;;;4.60;99.90;;;;;;4932924;29;20035;-57
2022/01/05 11:50:13;;;;;;;3.28;1.10;;;4.50;99.90;;;;;;4926729;28;19918;-59
2022/01/05 11:53:06;;;;;;;4.68;0.85;;;4.60;99.90;;;;;;4932894;28;20027;-59
2022/01/05 11:55:53;;;;;;;1.92;1.05;;;4.60;99.90;;;;;;4932681;28;20031;-59
2022/01/05 11:58:21;;;;;;;2.70;0.98;;;4.60;99.90;;;;;;4931351;28;20481;-59
2022/01/05 12:01:07;;;;;;;2.10;1.20;;;4.60;99.90;;;;;;4933019;28;20225;-59
2022/01/05 12:03:57;;;;;;;1.13;0.63;;;4.60;99.90;;;;;;4928697;29;20044;-59
2022/01/05 12:06:25;;;;;;;4.75;0.80;;;4.50;99.90;;;;;;4931017;29;20024;-58
2022/01/05 12:08:52;;;;;;;3.10;0.70;;;4.40;99.90;;;;;;4930374;29;20031;-58
2022/01/05 12:11:30;;;;;;;2.80;0.98;;;4.40;99.90;;;;;;4933441;28;20473;-58
2022/01/05 12:13:57;;;;;;;2.22;1.00;;;4.20;99.90;;;;;;4929834;29;20042;-58
2022/01/05 12:16:24;;;;;;;0.93;0.60;;;4.00;99.90;;;;;;4928318;29;20031;-58
2022/01/05 12:19:06;;;;;;;2.13;0.70;;;3.90;99.90;;;;;;4934079;28;20036;-58
2022/01/05 12:21:49;;;;;;;2.03;0.90;;;3.70;99.90;;;;;;4935731;28;20354;-57
2022/01/05 12:24:16;;;;;;;7.18;1.00;;;3.70;99.90;;;;;;4932754;29;20091;-58
2022/01/05 12:26:43;;;;;;;3.30;0.90;;;3.70;99.90;;;;;;4935292;28;20040;-58
2022/01/05 12:29:09;;;;;;;3.17;1.13;;;3.70;99.90;;;;;;4932029;28;20032;-59
2022/01/05 12:31:54;;;;;;;3.55;1.15;;;3.70;99.90;;;;;;4936528;28;20027;-58
2022/01/05 12:34:56;;;;;;;2.20;0.98;;;3.70;99.90;;;;;;4933828;28;20102;-58
2022/01/05 12:37:37;;;;;;;3.30;1.25;;;3.70;99.90;;;;;;4936286;28;20040;-58
2022/01/05 12:40:30;;;;;;;2.05;0.70;;;3.70;99.90;;;;;;4934171;29;20027;-57
2022/01/05 12:43:08;;;;;;;1.33;0.90;;;3.80;99.90;;;;;;4929812;29;20470;-58
2022/01/05 12:45:59;;;;;;;2.47;0.82;;;3.90;99.90;;;;;;4930954;28;20366;-58
2022/01/05 12:48:35;;;;;;;1.55;0.70;;;3.90;99.90;;;;;;4929454;28;20028;-57
2022/01/05 12:51:39;;;;;;;3.13;0.70;;;3.90;99.90;;;;;;4928001;28;20070;-57
2022/01/05 12:54:18;;;;;;;1.23;0.95;;;3.90;99.90;;;;;;4931622;29;20062;-57
2022/01/05 12:56:47;;;;;;;1.42;1.00;;;4.00;99.90;;;;;;4928134;29;20039;-57
2022/01/05 12:59:34;;;;;;;3.22;1.42;;;4.00;99.90;;;;;;4929350;29;20389;-57
2022/01/05 13:02:06;;;;;;;1.58;1.20;;;4.10;99.90;;;;;;4929045;29;20091;-57
2022/01/05 13:04:32;;;;;;;2.60;0.88;;;4.10;99.90;;;;;;4930704;29;20035;-57
2022/01/05 13:07:00;;;;;;;1.48;0.90;;;4.20;99.90;;;;;;4926913;28;20043;-57
2022/01/05 13:09:33;;;;;;;1.77;0.98;;;4.20;99.90;;;;;;4926119;29;20496;-55
2022/01/05 13:12:05;;;;;;;1.48;1.00;;;4.20;99.90;;;;;;4928991;29;20016;-58